Time;durP1;ratioP1;P1;durP2;ratioP2;P2;SDS_P1;SDS_P2;PMS_P1;PMS_P2;Temp;Humidity;BMP_temperature;BMP_pressure;BME280_temperature;BME280_humidity;BME280_pressure;Samples;Min_cycle;Max_cycle;Signal;HPM_P1;HPM_P2
2022/09/08 00:00:45;;;;;;;;;;;;;;;;;;4916037;29;19922;-76
2022/09/08 00:03:31;;;;;;;;;;;;;;;;;;4927521;29;19911;-76
2022/09/08 00:06:18;;;;;;;;;;;;;;;;;;4921536;29;19934;-76
2022/09/08 00:09:04;;;;;;;;;;;;;;;;;;4927592;29;19915;-77
2022/09/08 00:11:51;;;;;;;;;;;;;;;;;;4926282;29;19918;-76
2022/09/08 00:14:38;;;;;;;;;;;;;;;;;;4931531;29;19923;-76
2022/09/08 00:17:24;;;;;;;;;;;;;;;;;;4928842;29;19919;-77
2022/09/08 00:20:11;;;;;;;;;;;;;;;;;;4936948;29;19927;-77
2022/09/08 00:22:57;;;;;;;;;;;;;;;;;;4932430;29;19911;-76
2022/09/08 00:25:44;;;;;;;;;;;;;;;;;;4917382;29;19919;-76
2022/09/08 00:28:30;;;;;;;;;;;;;;;;;;4925566;29;19915;-76
2022/09/08 00:31:17;;;;;;;;;;;;;;;;;;4932499;29;20381;-76
2022/09/08 00:34:03;;;;;;;;;;;;;;;;;;4921823;29;19919;-76
2022/09/08 00:36:52;;;;;;;;;;;;;;;;;;4926081;29;20522;-76
2022/09/08 00:39:39;;;;;;;;;;;;;;;;;;4915886;29;19915;-76
2022/09/08 00:42:25;;;;;;;;;;;;;;;;;;4918151;29;19938;-76
2022/09/08 00:45:12;;;;;;;;;;;;;;;;;;4922014;29;19922;-76
2022/09/08 00:47:58;;;;;;;;;;;;;;;;;;4929199;29;19997;-76
2022/09/08 00:50:45;;;;;;;;;;;;;;;;;;4929100;29;19919;-74
2022/09/08 00:53:31;;;;;;;;;;;;;;;;;;4928750;29;19919;-76
2022/09/08 00:56:18;;;;;;;;;;;;;;;;;;4930988;29;19930;-76
2022/09/08 00:59:04;;;;;;;;;;;;;;;;;;4911678;29;19921;-76
2022/09/08 01:01:51;;;;;;;;;;;;;;;;;;4927150;29;19922;-76
2022/09/08 01:04:37;;;;;;;;;;;;;;;;;;4923244;29;20359;-75
2022/09/08 01:13:35;;;;;;;;;;;;;;;;;;4936787;29;20386;-76
2022/09/08 01:16:21;;;;;;;;;;;;;;;;;;4921332;29;19922;-76
2022/09/08 01:19:08;;;;;;;;;;;;;;;;;;4919677;29;19923;-75
2022/09/08 01:21:54;;;;;;;;;;;;;;;;;;4914836;29;19919;-76
2022/09/08 01:24:41;;;;;;;;;;;;;;;;;;4916919;29;19915;-76
2022/09/08 01:27:28;;;;;;;;;;;;;;;;;;4925413;29;19911;-76
2022/09/08 01:30:14;;;;;;;;;;;;;;;;;;4919984;29;19978;-75
2022/09/08 01:33:01;;;;;;;;;;;;;;;;;;4928605;29;19920;-75
2022/09/08 01:35:47;;;;;;;;;;;;;;;;;;4923407;29;19922;-75
2022/09/08 01:38:34;;;;;;;;;;;;;;;;;;4918774;29;19945;-76
2022/09/08 01:41:20;;;;;;;;;;;;;;;;;;4925221;28;19923;-76
2022/09/08 01:44:07;;;;;;;;;;;;;;;;;;4918667;29;19938;-76
2022/09/08 01:46:53;;;;;;;;;;;;;;;;;;4929309;29;19919;-76
2022/09/08 01:49:40;;;;;;;;;;;;;;;;;;4928963;29;19911;-76
2022/09/08 01:52:26;;;;;;;;;;;;;;;;;;4912212;29;19921;-76
2022/09/08 01:55:13;;;;;;;;;;;;;;;;;;4928574;29;19911;-76
2022/09/08 01:57:59;;;;;;;;;;;;;;;;;;4932120;29;20564;-77
2022/09/08 02:00:46;;;;;;;;;;;;;;;;;;4920434;29;20298;-77
2022/09/08 02:03:32;;;;;;;;;;;;;;;;;;4934549;29;19917;-76
2022/09/08 02:06:19;;;;;;;;;;;;;;;;;;4925979;29;19911;-76
2022/09/08 02:09:05;;;;;;;;;;;;;;;;;;4924830;29;19922;-77
2022/09/08 02:11:52;;;;;;;;;;;;;;;;;;4932048;28;19922;-76
2022/09/08 02:14:38;;;;;;;;;;;;;;;;;;4929505;29;19931;-76
2022/09/08 02:17:24;;;;;;;;;;;;;;;;;;4932404;29;19915;-76
2022/09/08 02:20:11;;;;;;;;;;;;;;;;;;4923992;29;20024;-77
2022/09/08 02:22:57;;;;;;;;;;;;;;;;;;4927545;29;19910;-76
2022/09/08 02:25:44;;;;;;;;;;;;;;;;;;4933132;29;20534;-77
2022/09/08 02:28:30;;;;;;;;;;;;;;;;;;4933716;29;19914;-76
2022/09/08 02:31:17;;;;;;;;;;;;;;;;;;4926985;29;19915;-76
2022/09/08 02:34:03;;;;;;;;;;;;;;;;;;4928006;29;20383;-76
2022/09/08 02:36:50;;;;;;;;;;;;;;;;;;4932562;29;19922;-77
2022/09/08 02:39:37;;;;;;;;;;;;;;;;;;4926401;29;20249;-76
2022/09/08 02:42:23;;;;;;;;;;;;;;;;;;4934321;29;19915;-76
2022/09/08 02:45:10;;;;;;;;;;;;;;;;;;4931375;29;20052;-76
2022/09/08 02:47:58;;;;;;;;;;;;;;;;;;4927619;29;19938;-76
2022/09/08 02:50:44;;;;;;;;;;;;;;;;;;4922417;29;19915;-76
2022/09/08 02:53:31;;;;;;;;;;;;;;;;;;4930951;29;19945;-76
2022/09/08 02:56:17;;;;;;;;;;;;;;;;;;4926975;29;20364;-76
2022/09/08 02:59:04;;;;;;;;;;;;;;;;;;4932803;29;19911;-76
2022/09/08 03:01:50;;;;;;;;;;;;;;;;;;4932997;29;19922;-77
2022/09/08 03:04:37;;;;;;;;;;;;;;;;;;4920197;29;19911;-76
2022/09/08 03:07:23;;;;;;;;;;;;;;;;;;4928595;29;20324;-76
2022/09/08 03:10:10;;;;;;;;;;;;;;;;;;4928605;29;19923;-77
2022/09/08 03:12:56;;;;;;;;;;;;;;;;;;4927503;29;19919;-77
2022/09/08 03:15:43;;;;;;;;;;;;;;;;;;4929887;29;19915;-74
2022/09/08 03:18:29;;;;;;;;;;;;;;;;;;4918015;29;20278;-76
2022/09/08 03:21:16;;;;;;;;;;;;;;;;;;4915151;29;19922;-76
2022/09/08 03:24:02;;;;;;;;;;;;;;;;;;4929935;29;19911;-76
2022/09/08 03:26:49;;;;;;;;;;;;;;;;;;4919176;29;19915;-76
2022/09/08 03:29:35;;;;;;;;;;;;;;;;;;4919040;29;19921;-75
2022/09/08 03:32:22;;;;;;;;;;;;;;;;;;4930696;29;19938;-74
2022/09/08 03:35:08;;;;;;;;;;;;;;;;;;4919929;29;19942;-74
2022/09/08 03:37:55;;;;;;;;;;;;;;;;;;4924788;29;19919;-74
2022/09/08 03:40:41;;;;;;;;;;;;;;;;;;4916325;29;19915;-75
2022/09/08 03:43:28;;;;;;;;;;;;;;;;;;4922547;29;19994;-75
2022/09/08 03:46:14;;;;;;;;;;;;;;;;;;4921485;29;19915;-75
2022/09/08 03:49:01;;;;;;;;;;;;;;;;;;4923946;29;19911;-75
2022/09/08 03:51:47;;;;;;;;;;;;;;;;;;4925081;29;19911;-75
2022/09/08 03:54:50;;;;;;;;;;;;;;;;;;4914228;29;19954;-75
2022/09/08 03:57:37;;;;;;;;;;;;;;;;;;4916341;29;19922;-75
2022/09/08 04:00:23;;;;;;;;;;;;;;;;;;4929145;29;20485;-74
2022/09/08 04:03:10;;;;;;;;;;;;;;;;;;4923918;29;19915;-74
2022/09/08 04:05:56;;;;;;;;;;;;;;;;;;4926482;28;19985;-74
2022/09/08 04:08:43;;;;;;;;;;;;;;;;;;4931094;29;19910;-74
2022/09/08 04:11:31;;;;;;;;;;;;;;;;;;4930234;29;21054;-74
2022/09/08 04:14:17;;;;;;;;;;;;;;;;;;4928684;29;19919;-75
2022/09/08 04:17:04;;;;;;;;;;;;;;;;;;4927699;28;19911;-75
2022/09/08 04:19:50;;;;;;;;;;;;;;;;;;4932036;29;19933;-73
2022/09/08 04:22:37;;;;;;;;;;;;;;;;;;4920604;29;19937;-74
2022/09/08 04:25:23;;;;;;;;;;;;;;;;;;4919466;29;19930;-74
2022/09/08 04:28:10;;;;;;;;;;;;;;;;;;4925273;29;19919;-73
2022/09/08 04:30:56;;;;;;;;;;;;;;;;;;4924301;28;19919;-73
2022/09/08 04:33:43;;;;;;;;;;;;;;;;;;4918225;29;19949;-75
2022/09/08 04:36:30;;;;;;;;;;;;;;;;;;4921589;29;19911;-74
2022/09/08 04:39:18;;;;;;;;;;;;;;;;;;4920131;29;19915;-74
2022/09/08 04:42:04;;;;;;;;;;;;;;;;;;4930820;29;19922;-75
2022/09/08 04:44:51;;;;;;;;;;;;;;;;;;4918709;29;20267;-75
2022/09/08 04:47:37;;;;;;;;;;;;;;;;;;4921905;29;19915;-76
2022/09/08 04:50:24;;;;;;;;;;;;;;;;;;4919466;29;19919;-75
2022/09/08 04:53:10;;;;;;;;;;;;;;;;;;4925291;29;19933;-75
2022/09/08 04:55:57;;;;;;;;;;;;;;;;;;4920795;29;20302;-76
2022/09/08 04:58:43;;;;;;;;;;;;;;;;;;4924252;29;19926;-74
2022/09/08 05:01:30;;;;;;;;;;;;;;;;;;4926470;28;19915;-73
2022/09/08 05:04:16;;;;;;;;;;;;;;;;;;4913182;29;19922;-74
2022/09/08 05:07:03;;;;;;;;;;;;;;;;;;4912053;29;20297;-75
2022/09/08 05:09:50;;;;;;;;;;;;;;;;;;4929579;29;19911;-75
2022/09/08 05:12:37;;;;;;;;;;;;;;;;;;4930512;29;19985;-75
2022/09/08 05:15:25;;;;;;;;;;;;;;;;;;4918361;29;19923;-75
2022/09/08 05:18:12;;;;;;;;;;;;;;;;;;4917083;28;20264;-75
2022/09/08 05:20:58;;;;;;;;;;;;;;;;;;4918594;29;19918;-74
2022/09/08 05:23:45;;;;;;;;;;;;;;;;;;4928109;29;19919;-74
2022/09/08 05:26:31;;;;;;;;;;;;;;;;;;4924500;29;19958;-74
2022/09/08 05:29:18;;;;;;;;;;;;;;;;;;4920943;29;19912;-74
2022/09/08 05:32:04;;;;;;;;;;;;;;;;;;4936419;29;19911;-75
2022/09/08 05:34:51;;;;;;;;;;;;;;;;;;4928668;29;19922;-74
2022/09/08 05:37:37;;;;;;;;;;;;;;;;;;4931635;29;19922;-74
2022/09/08 05:40:24;;;;;;;;;;;;;;;;;;4932221;29;19919;-74
2022/09/08 05:43:10;;;;;;;;;;;;;;;;;;4930398;28;19926;-74
2022/09/08 05:45:57;;;;;;;;;;;;;;;;;;4915047;29;19911;-75
2022/09/08 05:48:44;;;;;;;;;;;;;;;;;;4923422;29;19911;-75
2022/09/08 05:51:32;;;;;;;;;;;;;;;;;;4931839;29;19915;-75
2022/09/08 05:54:18;;;;;;;;;;;;;;;;;;4927812;28;19926;-75
2022/09/08 05:57:05;;;;;;;;;;;;;;;;;;4925095;28;19917;-76
2022/09/08 05:59:51;;;;;;;;;;;;;;;;;;4926315;29;19911;-75
2022/09/08 06:02:38;;;;;;;;;;;;;;;;;;4938569;28;19918;-74
2022/09/08 06:05:24;;;;;;;;;;;;;;;;;;4917283;29;19958;-74
2022/09/08 06:08:11;;;;;;;;;;;;;;;;;;4916633;29;19927;-74
2022/09/08 06:10:57;;;;;;;;;;;;;;;;;;4923316;29;20359;-74
2022/09/08 06:13:44;;;;;;;;;;;;;;;;;;4911710;29;20473;-74
2022/09/08 06:16:30;;;;;;;;;;;;;;;;;;4911118;29;19937;-75
2022/09/08 06:19:17;;;;;;;;;;;;;;;;;;4929710;29;19923;-75
2022/09/08 06:22:03;;;;;;;;;;;;;;;;;;4923054;29;19918;-75
2022/09/08 06:24:50;;;;;;;;;;;;;;;;;;4928757;29;19914;-75
2022/09/08 06:27:36;;;;;;;;;;;;;;;;;;4923134;29;19918;-75
2022/09/08 06:30:23;;;;;;;;;;;;;;;;;;4921863;29;20276;-76
2022/09/08 06:33:09;;;;;;;;;;;;;;;;;;4925996;29;19926;-75
2022/09/08 06:35:58;;;;;;;;;;;;;;;;;;4919271;29;20406;-75
2022/09/08 06:38:44;;;;;;;;;;;;;;;;;;4920768;29;19922;-76
2022/09/08 06:41:31;;;;;;;;;;;;;;;;;;4919704;29;19918;-75
2022/09/08 06:44:19;;;;;;;;;;;;;;;;;;4926101;29;19919;-74
2022/09/08 06:47:06;;;;;;;;;;;;;;;;;;4927157;29;19925;-74
2022/09/08 06:49:52;;;;;;;;;;;;;;;;;;4918980;29;20382;-74
2022/09/08 06:52:39;;;;;;;;;;;;;;;;;;4934007;29;19921;-74
2022/09/08 06:55:25;;;;;;;;;;;;;;;;;;4931444;29;20501;-74
2022/09/08 06:58:12;;;;;;;;;;;;;;;;;;4934881;29;19925;-75
2022/09/08 07:01:01;;;;;;;;;;;;;;;;;;4921919;29;20436;-73
2022/09/08 07:03:49;;;;;;;;;;;;;;;;;;4921592;29;19921;-77
2022/09/08 07:06:36;;;;;;;;;;;;;;;;;;4924241;29;20425;-75
2022/09/08 07:09:22;;;;;;;;;;;;;;;;;;4917113;29;20419;-75
2022/09/08 07:12:09;;;;;;;;;;;;;;;;;;4920653;29;20367;-75
2022/09/08 07:14:55;;;;;;;;;;;;;;;;;;4942381;29;19919;-74
2022/09/08 07:17:42;;;;;;;;;;;;;;;;;;4921664;29;19918;-74
2022/09/08 07:20:37;;;;;;;;;;;;;;;;;;5123362;27;19912;-74
2022/09/08 07:23:23;;;;;;;;;;;;;;;;;;5119965;28;19912;-75
2022/09/08 07:26:10;;;;;;;;;;;;;;;;;;5114256;28;19931;-73
2022/09/08 07:28:56;;;;;;;;;;;;;;;;;;5097926;28;19939;-74
2022/09/08 07:31:43;;;;;;;;;;;;;;;;;;5104875;28;19914;-75
2022/09/08 07:34:30;;;;;;;;;;;;;;;;;;5103256;28;19912;-73
2022/09/08 07:37:16;;;;;;;;;;;;;;;;;;5104737;28;19908;-74
2022/09/08 07:40:03;;;;;;;;;;;;;;;;;;5120837;28;20021;-73
2022/09/08 07:42:49;;;;;;;;;;;;;;;;;;5115207;28;19912;-74
2022/09/08 07:45:36;;;;;;;;;;;;;;;;;;5120997;27;19915;-74
2022/09/08 07:48:22;;;;;;;;;;;;;;;;;;5106644;28;19909;-74
2022/09/08 07:51:09;;;;;;;;;;;;;;;;;;5104397;28;19926;-75
2022/09/08 07:53:55;;;;;;;;;;;;;;;;;;5103683;28;20374;-73
2022/09/08 07:56:42;;;;;;;;;;;;;;;;;;5104376;28;19916;-73
2022/09/08 07:59:28;;;;;;;;;;;;;;;;;;5096514;28;20307;-74
2022/09/08 08:02:15;;;;;;;;;;;;;;;;;;5112177;27;19912;-74
2022/09/08 08:05:01;;;;;;;;;;;;;;;;;;5101707;28;19908;-75
2022/09/08 08:07:48;;;;;;;;;;;;;;;;;;5107152;28;19912;-74
2022/09/08 08:10:34;;;;;;;;;;;;;;;;;;5098617;28;19914;-75
2022/09/08 08:13:21;;;;;;;;;;;;;;;;;;5103715;28;19912;-75
2022/09/08 08:16:07;;;;;;;;;;;;;;;;;;5095612;28;19908;-73
2022/09/08 08:18:54;;;;;;;;;;;;;;;;;;5101545;28;19927;-74
2022/09/08 08:21:40;;;;;;;;;;;;;;;;;;5107163;28;19919;-74
2022/09/08 08:24:27;;;;;;;;;;;;;;;;;;5120734;27;19914;-74
2022/09/08 08:27:13;;;;;;;;;;;;;;;;;;5117667;27;19914;-73
2022/09/08 08:30:00;;;;;;;;;;;;;;;;;;5123500;27;20422;-74
2022/09/08 08:32:46;;;;;;;;;;;;;;;;;;5099240;27;19908;-73
2022/09/08 08:35:32;;;;;;;;;;;;;;;;;;5101342;27;19919;-75
2022/09/08 08:38:19;;;;;;;;;;;;;;;;;;5112580;27;19912;-74
2022/09/08 08:41:06;;;;;;;;;;;;;;;;;;5112421;27;19922;-74
2022/09/08 08:43:52;;;;;;;;;;;;;;;;;;5109138;27;19916;-74
2022/09/08 08:46:39;;;;;;;;;;;;;;;;;;5107045;27;19918;-74
2022/09/08 08:49:25;;;;;;;;;;;;;;;;;;5108546;27;20378;-74
2022/09/08 08:52:12;;;;;;;;;;;;;;;;;;5104632;27;19915;-74
2022/09/08 08:54:58;;;;;;;;;;;;;;;;;;5109954;27;20500;-74
2022/09/08 08:57:44;;;;;;;;;;;;;;;;;;5124067;27;19918;-75
2022/09/08 09:00:31;;;;;;;;;;;;;;;;;;5100383;27;19915;-74
2022/09/08 09:03:17;;;;;;;;;;;;;;;;;;5108944;27;19919;-74
2022/09/08 09:06:04;;;;;;;;;;;;;;;;;;5105529;27;20279;-74
2022/09/08 09:08:50;;;;;;;;;;;;;;;;;;5108381;28;20440;-73
2022/09/08 09:11:37;;;;;;;;;;;;;;;;;;5100967;27;19908;-74
2022/09/08 09:14:23;;;;;;;;;;;;;;;;;;5102399;27;20359;-74
2022/09/08 09:17:10;;;;;;;;;;;;;;;;;;5096880;28;20312;-74
2022/09/08 09:19:56;;;;;;;;;;;;;;;;;;5104909;27;19923;-74
2022/09/08 09:22:43;;;;;;;;;;;;;;;;;;5107322;28;20379;-74
2022/09/08 09:25:29;;;;;;;;;;;;;;;;;;5116280;27;19912;-73
2022/09/08 09:28:16;;;;;;;;;;;;;;;;;;5105158;28;20231;-74
2022/09/08 09:31:03;;;;;;;;;;;;;;;;;;5108231;27;19916;-73
2022/09/08 09:33:49;;;;;;;;;;;;;;;;;;5103605;27;19911;-74
2022/09/08 09:36:36;;;;;;;;;;;;;;;;;;5107749;27;19919;-74
2022/09/08 09:39:22;;;;;;;;;;;;;;;;;;5122024;27;19922;-74
2022/09/08 09:42:09;;;;;;;;;;;;;;;;;;5118161;27;19924;-73
2022/09/08 09:44:55;;;;;;;;;;;;;;;;;;5110370;27;19916;-74
2022/09/08 09:47:42;;;;;;;;;;;;;;;;;;5102591;28;20278;-74
2022/09/08 09:50:29;;;;;;;;;;;;;;;;;;5100744;27;19915;-75
2022/09/08 09:53:16;;;;;;;;;;;;;;;;;;5101529;27;19911;-74
2022/09/08 09:56:02;;;;;;;;;;;;;;;;;;5105601;27;19919;-75
2022/09/08 09:58:49;;;;;;;;;;;;;;;;;;5104671;27;19938;-73
2022/09/08 10:01:35;;;;;;;;;;;;;;;;;;5096783;27;19912;-74
2022/09/08 10:04:22;;;;;;;;;;;;;;;;;;5091956;27;19914;-76
2022/09/08 10:07:08;;;;;;;;;;;;;;;;;;5095367;27;20291;-74
2022/09/08 10:09:55;;;;;;;;;;;;;;;;;;5110640;27;19994;-73
2022/09/08 10:12:42;;;;;;;;;;;;;;;;;;5096117;28;19923;-74
2022/09/08 10:15:29;;;;;;;;;;;;;;;;;;5103726;27;19934;-75
2022/09/08 10:18:16;;;;;;;;;;;;;;;;;;5108309;27;20291;-76
2022/09/08 10:21:03;;;;;;;;;;;;;;;;;;5092176;28;19926;-75
2022/09/08 10:23:49;;;;;;;;;;;;;;;;;;5102956;27;19957;-75
2022/09/08 10:26:35;;;;;;;;;;;;;;;;;;5113033;27;19927;-75
2022/09/08 10:29:22;;;;;;;;;;;;;;;;;;5102113;28;19915;-73
2022/09/08 10:32:08;;;;;;;;;;;;;;;;;;5094306;28;19914;-73
2022/09/08 10:34:56;;;;;;;;;;;;;;;;;;5107852;27;19914;-74
2022/09/08 10:37:42;;;;;;;;;;;;;;;;;;5109003;28;19950;-73
2022/09/08 10:40:29;;;;;;;;;;;;;;;;;;5098566;28;19926;-74
2022/09/08 10:43:15;;;;;;;;;;;;;;;;;;5093648;28;19959;-74
2022/09/08 10:46:04;;;;;;;;;;;;;;;;;;5110004;27;19908;-73
2022/09/08 10:48:51;;;;;;;;;;;;;;;;;;5109800;28;19922;-74
2022/09/08 10:51:38;;;;;;;;;;;;;;;;;;5107804;27;19911;-74
2022/09/08 10:54:24;;;;;;;;;;;;;;;;;;5106308;27;20312;-74
2022/09/08 10:57:11;;;;;;;;;;;;;;;;;;5089511;28;19912;-73
2022/09/08 10:59:57;;;;;;;;;;;;;;;;;;5109542;27;20006;-73
2022/09/08 11:02:44;;;;;;;;;;;;;;;;;;5095535;28;19915;-73
2022/09/08 11:05:30;;;;;;;;;;;;;;;;;;5109288;28;19927;-74
2022/09/08 11:08:17;;;;;;;;;;;;;;;;;;5106525;28;19915;-73
2022/09/08 11:11:05;;;;;;;;;;;;;;;;;;5112274;27;19915;-73
2022/09/08 11:13:52;;;;;;;;;;;;;;;;;;5087607;28;19922;-73
2022/09/08 11:16:39;;;;;;;;;;;;;;;;;;5101020;28;20294;-73
2022/09/08 11:19:25;;;;;;;;;;;;;;;;;;5111396;28;19930;-73
2022/09/08 11:22:12;;;;;;;;;;;;;;;;;;5100617;28;19908;-73
2022/09/08 11:24:58;;;;;;;;;;;;;;;;;;5105989;28;19908;-74
2022/09/08 11:27:45;;;;;;;;;;;;;;;;;;5109263;28;20362;-73
2022/09/08 11:30:31;;;;;;;;;;;;;;;;;;5108223;28;19914;-74
2022/09/08 11:33:18;;;;;;;;;;;;;;;;;;5101288;28;20335;-74
2022/09/08 11:36:04;;;;;;;;;;;;;;;;;;5102060;28;19908;-74
2022/09/08 11:38:50;;;;;;;;;;;;;;;;;;5106660;28;19927;-73
2022/09/08 11:41:37;;;;;;;;;;;;;;;;;;5102481;28;19920;-74
2022/09/08 11:44:23;;;;;;;;;;;;;;;;;;5100524;28;20400;-74
2022/09/08 11:47:10;;;;;;;;;;;;;;;;;;5109737;28;19918;-74
2022/09/08 11:49:56;;;;;;;;;;;;;;;;;;5101729;28;20486;-73
2022/09/08 11:52:43;;;;;;;;;;;;;;;;;;5104899;28;19908;-73
2022/09/08 11:55:29;;;;;;;;;;;;;;;;;;5104252;28;19915;-74
2022/09/08 11:58:16;;;;;;;;;;;;;;;;;;5116542;28;19920;-73
2022/09/08 12:01:02;;;;;;;;;;;;;;;;;;5108516;28;19916;-73
2022/09/08 12:03:49;;;;;;;;;;;;;;;;;;5088922;28;19912;-76
2022/09/08 12:06:35;;;;;;;;;;;;;;;;;;5116255;27;20286;-77
2022/09/08 12:09:22;;;;;;;;;;;;;;;;;;5104350;28;20287;-77
2022/09/08 12:12:08;;;;;;;;;;;;;;;;;;5102711;27;19908;-78
2022/09/08 12:14:55;;;;;;;;;;;;;;;;;;5100184;27;19916;-77
2022/09/08 12:17:41;;;;;;;;;;;;;;;;;;5097181;28;19923;-75
2022/09/08 12:20:28;;;;;;;;;;;;;;;;;;5089801;27;19942;-75
2022/09/08 12:23:14;;;;;;;;;;;;;;;;;;5097085;28;19924;-76
2022/09/08 12:26:01;;;;;;;;;;;;;;;;;;5099478;27;20393;-75
2022/09/08 12:28:47;;;;;;;;;;;;;;;;;;5100927;27;19923;-76
2022/09/08 12:31:34;;;;;;;;;;;;;;;;;;5102684;27;19915;-76
2022/09/08 12:34:20;;;;;;;;;;;;;;;;;;5103219;27;19920;-76
2022/09/08 12:37:07;;;;;;;;;;;;;;;;;;5099315;28;19990;-76
2022/09/08 12:39:59;;;;;;;;;;;;;;;;;;5099562;27;19931;-76
2022/09/08 12:42:46;;;;;;;;;;;;;;;;;;5087572;28;19927;-75
2022/09/08 12:45:33;;;;;;;;;;;;;;;;;;5094237;28;19912;-76
2022/09/08 12:48:20;;;;;;;;;;;;;;;;;;5094025;28;19916;-75
2022/09/08 12:51:07;;;;;;;;;;;;;;;;;;5103334;27;19919;-77
2022/09/08 12:53:54;;;;;;;;;;;;;;;;;;5105311;27;20445;-77
2022/09/08 12:56:40;;;;;;;;;;;;;;;;;;5098787;27;19916;-77
2022/09/08 12:59:27;;;;;;;;;;;;;;;;;;5101778;28;20397;-77
2022/09/08 13:02:13;;;;;;;;;;;;;;;;;;5100279;27;20075;-76
2022/09/08 13:05:00;;;;;;;;;;;;;;;;;;5105029;28;19915;-77
2022/09/08 13:07:46;;;;;;;;;;;;;;;;;;5102872;27;19922;-77
2022/09/08 13:10:33;;;;;;;;;;;;;;;;;;5108936;27;19934;-77
2022/09/08 13:13:19;;;;;;;;;;;;;;;;;;5100718;28;20347;-75
2022/09/08 13:16:06;;;;;;;;;;;;;;;;;;5103288;27;19936;-77
2022/09/08 13:18:52;;;;;;;;;;;;;;;;;;5098274;28;20342;-77
2022/09/08 13:21:38;;;;;;;;;;;;;;;;;;5100099;28;20000;-77
2022/09/08 13:24:25;;;;;;;;;;;;;;;;;;5097708;28;19915;-77
2022/09/08 13:27:12;;;;;;;;;;;;;;;;;;5094642;28;19914;-78
2022/09/08 13:29:58;;;;;;;;;;;;;;;;;;5107917;27;19920;-78
2022/09/08 13:32:46;;;;;;;;;;;;;;;;;;5109184;27;19911;-76
2022/09/08 13:35:32;;;;;;;;;;;;;;;;;;5093192;28;19912;-77
2022/09/08 13:38:19;;;;;;;;;;;;;;;;;;5108041;28;20275;-77
2022/09/08 13:41:05;;;;;;;;;;;;;;;;;;5108584;28;19916;-78
2022/09/08 13:43:52;;;;;;;;;;;;;;;;;;5090792;28;19908;-78
2022/09/08 13:46:38;;;;;;;;;;;;;;;;;;5092886;28;19920;-76
2022/09/08 13:49:25;;;;;;;;;;;;;;;;;;5104741;27;19915;-76
2022/09/08 13:52:11;;;;;;;;;;;;;;;;;;5106857;27;19931;-76
2022/09/08 13:54:58;;;;;;;;;;;;;;;;;;5105339;27;19908;-76
2022/09/08 13:57:45;;;;;;;;;;;;;;;;;;5103005;28;19908;-76
2022/09/08 14:00:31;;;;;;;;;;;;;;;;;;5102000;27;19927;-77
2022/09/08 14:03:18;;;;;;;;;;;;;;;;;;5095691;27;19912;-76
2022/09/08 14:06:04;;;;;;;;;;;;;;;;;;5106650;27;20282;-76
2022/09/08 14:08:50;;;;;;;;;;;;;;;;;;5086019;28;19927;-76
2022/09/08 14:11:38;;;;;;;;;;;;;;;;;;5099116;28;20389;-77
2022/09/08 14:14:24;;;;;;;;;;;;;;;;;;5091700;28;20345;-78
2022/09/08 14:17:11;;;;;;;;;;;;;;;;;;5112238;27;19915;-77
2022/09/08 14:19:58;;;;;;;;;;;;;;;;;;5092755;27;19920;-77
2022/09/08 14:22:44;;;;;;;;;;;;;;;;;;5115394;27;19931;-77
2022/09/08 14:25:31;;;;;;;;;;;;;;;;;;5095070;27;19935;-76
2022/09/08 14:28:18;;;;;;;;;;;;;;;;;;5122485;27;19911;-76
2022/09/08 14:31:04;;;;;;;;;;;;;;;;;;5109694;27;19911;-75
2022/09/08 14:33:51;;;;;;;;;;;;;;;;;;5116226;27;20375;-76
2022/09/08 14:36:38;;;;;;;;;;;;;;;;;;5115268;27;19912;-75
2022/09/08 14:39:24;;;;;;;;;;;;;;;;;;5106045;27;19911;-76
2022/09/08 14:42:11;;;;;;;;;;;;;;;;;;5102721;28;20334;-76
2022/09/08 14:44:58;;;;;;;;;;;;;;;;;;5124226;27;20301;-76
2022/09/08 14:47:44;;;;;;;;;;;;;;;;;;5112320;27;19907;-77
2022/09/08 14:50:31;;;;;;;;;;;;;;;;;;5094815;28;19916;-76
2022/09/08 14:53:17;;;;;;;;;;;;;;;;;;5094510;27;19915;-76
2022/09/08 14:56:04;;;;;;;;;;;;;;;;;;5091269;27;19912;-76
2022/09/08 14:58:50;;;;;;;;;;;;;;;;;;5089141;28;19920;-76
2022/09/08 15:01:37;;;;;;;;;;;;;;;;;;5102346;28;20290;-75
2022/09/08 15:04:23;;;;;;;;;;;;;;;;;;5102733;28;20278;-76
2022/09/08 15:07:11;;;;;;;;;;;;;;;;;;5099166;27;19908;-76
2022/09/08 15:09:57;;;;;;;;;;;;;;;;;;5106897;28;20384;-76
2022/09/08 15:12:44;;;;;;;;;;;;;;;;;;5101423;28;19919;-76
2022/09/08 15:15:30;;;;;;;;;;;;;;;;;;5106863;27;19916;-76
2022/09/08 15:18:17;;;;;;;;;;;;;;;;;;5115561;28;19908;-76
2022/09/08 15:21:04;;;;;;;;;;;;;;;;;;5112116;28;20307;-75
2022/09/08 15:23:51;;;;;;;;;;;;;;;;;;5105833;28;20374;-75
2022/09/08 15:26:39;;;;;;;;;;;;;;;;;;5108508;28;20364;-77
2022/09/08 15:29:28;;;;;;;;;;;;;;;;;;5107495;28;19926;-76
2022/09/08 15:32:14;;;;;;;;;;;;;;;;;;5109549;28;19912;-75
2022/09/08 15:35:01;;;;;;;;;;;;;;;;;;5114073;28;19916;-75
2022/09/08 15:37:47;;;;;;;;;;;;;;;;;;5130287;28;19907;-77
2022/09/08 15:40:34;;;;;;;;;;;;;;;;;;5119717;27;19923;-76
2022/09/08 15:43:21;;;;;;;;;;;;;;;;;;5112512;28;19922;-77
2022/09/08 15:46:10;;;;;;;;;;;;;;;;;;5113944;27;20298;-76
2022/09/08 15:48:56;;;;;;;;;;;;;;;;;;5105672;28;19912;-76
2022/09/08 15:51:43;;;;;;;;;;;;;;;;;;5105125;28;19918;-76
2022/09/08 15:54:30;;;;;;;;;;;;;;;;;;5122661;27;19916;-77
2022/09/08 15:57:18;;;;;;;;;;;;;;;;;;5106955;27;19908;-77
2022/09/08 16:00:10;;;;;;;;;;;;;;;;;;5105733;27;19939;-75
2022/09/08 16:02:57;;;;;;;;;;;;;;;;;;5118993;28;19908;-77
2022/09/08 16:05:43;;;;;;;;;;;;;;;;;;5113509;28;19908;-77
2022/09/08 16:08:30;;;;;;;;;;;;;;;;;;5116945;27;19912;-76
2022/09/08 16:11:17;;;;;;;;;;;;;;;;;;5109296;27;19912;-76
2022/09/08 16:14:03;;;;;;;;;;;;;;;;;;5105519;27;19911;-76
2022/09/08 16:16:52;;;;;;;;;;;;;;;;;;5108273;27;20318;-76
2022/09/08 16:19:38;;;;;;;;;;;;;;;;;;5091454;27;19927;-77
2022/09/08 16:22:27;;;;;;;;;;;;;;;;;;5107903;28;19915;-76
2022/09/08 16:25:13;;;;;;;;;;;;;;;;;;5107803;27;19912;-76
2022/09/08 16:28:00;;;;;;;;;;;;;;;;;;5103376;27;20318;-77
2022/09/08 16:30:46;;;;;;;;;;;;;;;;;;5108365;27;19912;-78
2022/09/08 16:33:33;;;;;;;;;;;;;;;;;;5103635;27;19918;-78
2022/09/08 16:36:20;;;;;;;;;;;;;;;;;;5096461;27;19911;-77
2022/09/08 16:39:07;;;;;;;;;;;;;;;;;;5102842;27;20291;-77
2022/09/08 16:41:53;;;;;;;;;;;;;;;;;;5112832;27;19916;-76
2022/09/08 16:44:40;;;;;;;;;;;;;;;;;;5109194;27;19911;-76
2022/09/08 16:47:26;;;;;;;;;;;;;;;;;;5094186;27;19909;-76
2022/09/08 16:50:13;;;;;;;;;;;;;;;;;;5099141;27;19912;-76
2022/09/08 16:53:00;;;;;;;;;;;;;;;;;;5107252;27;19915;-76
2022/09/08 16:55:46;;;;;;;;;;;;;;;;;;5090289;28;19912;-78
2022/09/08 16:58:33;;;;;;;;;;;;;;;;;;5092669;28;19923;-76
2022/09/08 17:01:20;;;;;;;;;;;;;;;;;;5111869;27;19949;-76
2022/09/08 17:04:06;;;;;;;;;;;;;;;;;;5091947;28;20293;-77
2022/09/08 17:06:53;;;;;;;;;;;;;;;;;;5093117;28;19922;-78
2022/09/08 17:09:39;;;;;;;;;;;;;;;;;;5090267;27;19907;-77
2022/09/08 17:12:26;;;;;;;;;;;;;;;;;;5103930;27;19927;-76
2022/09/08 17:15:13;;;;;;;;;;;;;;;;;;5099700;27;19930;-75
2022/09/08 17:17:59;;;;;;;;;;;;;;;;;;5115142;28;19908;-76
2022/09/08 17:20:46;;;;;;;;;;;;;;;;;;5106530;27;20259;-76
2022/09/08 17:23:32;;;;;;;;;;;;;;;;;;5108619;27;19918;-76
2022/09/08 17:26:19;;;;;;;;;;;;;;;;;;5103336;28;19908;-77
2022/09/08 17:29:07;;;;;;;;;;;;;;;;;;5105516;28;19918;-77
2022/09/08 17:31:54;;;;;;;;;;;;;;;;;;5111328;28;20276;-77
2022/09/08 17:34:40;;;;;;;;;;;;;;;;;;5098934;27;19918;-76
2022/09/08 17:37:27;;;;;;;;;;;;;;;;;;5104450;27;19920;-76
2022/09/08 17:40:13;;;;;;;;;;;;;;;;;;5092633;28;19912;-76
2022/09/08 17:43:00;;;;;;;;;;;;;;;;;;5105993;28;20378;-76
2022/09/08 17:45:47;;;;;;;;;;;;;;;;;;5082753;27;19914;-76
2022/09/08 17:48:35;;;;;;;;;;;;;;;;;;5099334;28;19908;-77
2022/09/08 17:51:22;;;;;;;;;;;;;;;;;;5091711;27;19923;-76
2022/09/08 17:54:08;;;;;;;;;;;;;;;;;;5099551;27;19909;-77
2022/09/08 17:56:56;;;;;;;;;;;;;;;;;;5099214;28;19918;-77
2022/09/08 17:59:42;;;;;;;;;;;;;;;;;;5100781;28;19916;-77
2022/09/08 18:02:31;;;;;;;;;;;;;;;;;;5109248;27;20351;-77
2022/09/08 18:05:19;;;;;;;;;;;;;;;;;;5093423;28;19914;-76
2022/09/08 18:08:05;;;;;;;;;;;;;;;;;;5108405;27;19915;-77
2022/09/08 18:10:52;;;;;;;;;;;;;;;;;;5119225;27;19916;-76
2022/09/08 18:13:40;;;;;;;;;;;;;;;;;;5107297;28;19941;-77
2022/09/08 18:16:27;;;;;;;;;;;;;;;;;;5109555;27;19908;-76
2022/09/08 18:19:13;;;;;;;;;;;;;;;;;;5113958;27;19915;-77
2022/09/08 18:22:00;;;;;;;;;;;;;;;;;;5102089;27;19934;-76
2022/09/08 18:24:46;;;;;;;;;;;;;;;;;;5093321;28;19916;-76
2022/09/08 18:27:33;;;;;;;;;;;;;;;;;;5103584;28;19908;-77
2022/09/08 18:30:19;;;;;;;;;;;;;;;;;;5092079;28;19919;-77
2022/09/08 18:33:06;;;;;;;;;;;;;;;;;;5107190;28;19911;-76
2022/09/08 18:35:52;;;;;;;;;;;;;;;;;;5084617;28;20314;-77
2022/09/08 18:38:39;;;;;;;;;;;;;;;;;;5109986;27;19908;-78
2022/09/08 18:41:26;;;;;;;;;;;;;;;;;;5107692;27;19928;-78
2022/09/08 18:44:12;;;;;;;;;;;;;;;;;;5090428;28;20006;-78
2022/09/08 18:46:58;;;;;;;;;;;;;;;;;;5106527;28;20412;-76
2022/09/08 18:49:46;;;;;;;;;;;;;;;;;;5102495;27;19923;-77
2022/09/08 18:52:32;;;;;;;;;;;;;;;;;;5097214;28;19919;-78
2022/09/08 18:55:19;;;;;;;;;;;;;;;;;;5100803;28;19908;-75
2022/09/08 18:58:05;;;;;;;;;;;;;;;;;;5099132;27;19918;-77
2022/09/08 19:00:52;;;;;;;;;;;;;;;;;;5102120;28;20375;-78
2022/09/08 19:03:38;;;;;;;;;;;;;;;;;;5106740;28;19908;-78